sensor_id;sensor_type;location;lat;lon;timestamp;P1;durP1;ratioP1;P2;durP2;ratioP2
36575;SDS011;45700;50.930;5.168;2023-04-06T00:02:50;35.22;;;11.02;;
36575;SDS011;45700;50.930;5.168;2023-04-06T00:06:52;32.47;;;11.57;;
36575;SDS011;45700;50.930;5.168;2023-04-06T00:10:53;35.30;;;11.02;;
36575;SDS011;45700;50.930;5.168;2023-04-06T00:14:54;37.97;;;11.50;;
36575;SDS011;45700;50.930;5.168;2023-04-06T00:18:55;30.65;;;10.40;;
36575;SDS011;45700;50.930;5.168;2023-04-06T00:22:56;31.40;;;10.23;;
36575;SDS011;45700;50.930;5.168;2023-04-06T00:26:57;31.08;;;11.40;;
36575;SDS011;45700;50.930;5.168;2023-04-06T00:30:58;27.58;;;9.15;;
36575;SDS011;45700;50.930;5.168;2023-04-06T00:34:59;40.20;;;10.82;;
36575;SDS011;45700;50.930;5.168;2023-04-06T00:39:00;30.70;;;10.43;;
36575;SDS011;45700;50.930;5.168;2023-04-06T00:43:01;31.67;;;11.13;;
36575;SDS011;45700;50.930;5.168;2023-04-06T00:47:02;34.55;;;11.40;;
36575;SDS011;45700;50.930;5.168;2023-04-06T00:51:03;32.35;;;11.07;;
36575;SDS011;45700;50.930;5.168;2023-04-06T00:55:05;26.35;;;9.57;;
36575;SDS011;45700;50.930;5.168;2023-04-06T00:59:06;26.15;;;8.73;;
36575;SDS011;45700;50.930;5.168;2023-04-06T01:03:07;22.60;;;9.43;;
36575;SDS011;45700;50.930;5.168;2023-04-06T01:07:08;25.95;;;10.07;;
36575;SDS011;45700;50.930;5.168;2023-04-06T01:11:10;24.73;;;9.13;;
36575;SDS011;45700;50.930;5.168;2023-04-06T01:15:11;35.30;;;9.75;;
36575;SDS011;45700;50.930;5.168;2023-04-06T01:19:12;27.13;;;8.30;;
36575;SDS011;45700;50.930;5.168;2023-04-06T01:23:13;25.85;;;9.13;;
36575;SDS011;45700;50.930;5.168;2023-04-06T01:27:14;21.88;;;8.35;;
36575;SDS011;45700;50.930;5.168;2023-04-06T01:31:15;26.42;;;11.27;;
36575;SDS011;45700;50.930;5.168;2023-04-06T01:35:17;36.85;;;11.07;;
36575;SDS011;45700;50.930;5.168;2023-04-06T01:39:18;35.35;;;12.38;;
36575;SDS011;45700;50.930;5.168;2023-04-06T01:43:20;32.67;;;11.73;;
36575;SDS011;45700;50.930;5.168;2023-04-06T01:47:21;34.67;;;11.48;;
36575;SDS011;45700;50.930;5.168;2023-04-06T01:51:22;36.75;;;11.68;;
36575;SDS011;45700;50.930;5.168;2023-04-06T01:55:24;33.35;;;10.50;;
36575;SDS011;45700;50.930;5.168;2023-04-06T01:59:26;28.25;;;10.57;;
36575;SDS011;45700;50.930;5.168;2023-04-06T02:03:28;36.13;;;11.95;;
36575;SDS011;45700;50.930;5.168;2023-04-06T02:07:29;29.88;;;10.77;;
36575;SDS011;45700;50.930;5.168;2023-04-06T02:11:30;30.30;;;10.30;;
36575;SDS011;45700;50.930;5.168;2023-04-06T02:15:31;33.03;;;11.40;;
36575;SDS011;45700;50.930;5.168;2023-04-06T02:19:32;33.08;;;11.15;;
36575;SDS011;45700;50.930;5.168;2023-04-06T02:23:33;34.75;;;10.63;;
36575;SDS011;45700;50.930;5.168;2023-04-06T02:27:34;32.90;;;10.68;;
36575;SDS011;45700;50.930;5.168;2023-04-06T02:31:36;29.52;;;9.82;;
36575;SDS011;45700;50.930;5.168;2023-04-06T02:35:37;34.72;;;11.00;;
36575;SDS011;45700;50.930;5.168;2023-04-06T02:39:38;28.02;;;11.20;;
36575;SDS011;45700;50.930;5.168;2023-04-06T02:43:39;33.40;;;11.25;;
36575;SDS011;45700;50.930;5.168;2023-04-06T02:47:40;31.45;;;10.23;;
36575;SDS011;45700;50.930;5.168;2023-04-06T02:51:41;30.98;;;10.50;;
36575;SDS011;45700;50.930;5.168;2023-04-06T02:55:42;34.13;;;11.40;;
36575;SDS011;45700;50.930;5.168;2023-04-06T02:59:43;32.47;;;9.73;;
36575;SDS011;45700;50.930;5.168;2023-04-06T03:03:44;36.20;;;10.60;;
36575;SDS011;45700;50.930;5.168;2023-04-06T03:07:45;27.67;;;10.90;;
36575;SDS011;45700;50.930;5.168;2023-04-06T03:11:46;28.23;;;10.40;;
36575;SDS011;45700;50.930;5.168;2023-04-06T03:15:47;31.17;;;10.95;;
36575;SDS011;45700;50.930;5.168;2023-04-06T03:19:48;30.40;;;10.93;;
36575;SDS011;45700;50.930;5.168;2023-04-06T03:23:49;33.05;;;11.50;;
36575;SDS011;45700;50.930;5.168;2023-04-06T03:27:51;33.63;;;12.63;;
36575;SDS011;45700;50.930;5.168;2023-04-06T03:31:52;37.50;;;11.57;;
36575;SDS011;45700;50.930;5.168;2023-04-06T03:35:53;26.67;;;10.35;;
36575;SDS011;45700;50.930;5.168;2023-04-06T03:39:54;29.25;;;10.93;;
36575;SDS011;45700;50.930;5.168;2023-04-06T03:43:55;33.28;;;11.45;;
36575;SDS011;45700;50.930;5.168;2023-04-06T03:47:56;37.00;;;11.85;;
36575;SDS011;45700;50.930;5.168;2023-04-06T03:51:57;34.22;;;11.98;;
36575;SDS011;45700;50.930;5.168;2023-04-06T03:55:58;42.20;;;12.15;;
36575;SDS011;45700;50.930;5.168;2023-04-06T03:59:59;35.53;;;11.43;;
36575;SDS011;45700;50.930;5.168;2023-04-06T04:04:00;33.38;;;11.23;;
36575;SDS011;45700;50.930;5.168;2023-04-06T04:08:01;34.92;;;11.88;;
36575;SDS011;45700;50.930;5.168;2023-04-06T04:12:03;33.72;;;11.63;;
36575;SDS011;45700;50.930;5.168;2023-04-06T04:16:04;37.72;;;10.95;;
36575;SDS011;45700;50.930;5.168;2023-04-06T04:20:05;35.80;;;12.43;;
36575;SDS011;45700;50.930;5.168;2023-04-06T04:24:06;32.33;;;10.85;;
36575;SDS011;45700;50.930;5.168;2023-04-06T04:28:07;34.15;;;10.65;;
36575;SDS011;45700;50.930;5.168;2023-04-06T04:32:08;30.48;;;11.65;;
36575;SDS011;45700;50.930;5.168;2023-04-06T04:36:09;31.52;;;11.38;;
36575;SDS011;45700;50.930;5.168;2023-04-06T04:40:11;29.35;;;10.93;;
36575;SDS011;45700;50.930;5.168;2023-04-06T04:44:12;31.60;;;10.68;;
36575;SDS011;45700;50.930;5.168;2023-04-06T04:48:13;29.35;;;11.10;;
36575;SDS011;45700;50.930;5.168;2023-04-06T04:52:14;29.92;;;10.70;;
36575;SDS011;45700;50.930;5.168;2023-04-06T04:56:15;31.90;;;11.13;;
36575;SDS011;45700;50.930;5.168;2023-04-06T05:00:16;26.23;;;10.52;;
36575;SDS011;45700;50.930;5.168;2023-04-06T05:04:17;22.20;;;9.18;;
36575;SDS011;45700;50.930;5.168;2023-04-06T05:08:18;29.63;;;10.45;;
36575;SDS011;45700;50.930;5.168;2023-04-06T05:12:19;29.38;;;9.27;;
36575;SDS011;45700;50.930;5.168;2023-04-06T05:16:20;25.65;;;10.10;;
36575;SDS011;45700;50.930;5.168;2023-04-06T05:20:21;27.17;;;8.82;;
36575;SDS011;45700;50.930;5.168;2023-04-06T05:24:22;32.58;;;9.77;;
36575;SDS011;45700;50.930;5.168;2023-04-06T05:28:23;31.05;;;10.90;;
36575;SDS011;45700;50.930;5.168;2023-04-06T05:32:24;28.40;;;10.70;;
36575;SDS011;45700;50.930;5.168;2023-04-06T05:36:25;25.65;;;9.52;;
36575;SDS011;45700;50.930;5.168;2023-04-06T05:40:26;25.55;;;9.75;;
36575;SDS011;45700;50.930;5.168;2023-04-06T05:44:27;21.40;;;9.25;;
36575;SDS011;45700;50.930;5.168;2023-04-06T05:48:28;25.10;;;10.88;;
36575;SDS011;45700;50.930;5.168;2023-04-06T05:52:29;29.95;;;10.32;;
36575;SDS011;45700;50.930;5.168;2023-04-06T05:56:30;33.50;;;11.23;;
36575;SDS011;45700;50.930;5.168;2023-04-06T06:00:31;25.13;;;9.77;;
36575;SDS011;45700;50.930;5.168;2023-04-06T06:04:33;30.02;;;9.68;;
36575;SDS011;45700;50.930;5.168;2023-04-06T06:08:34;26.65;;;9.98;;
36575;SDS011;45700;50.930;5.168;2023-04-06T06:12:35;28.35;;;9.48;;
36575;SDS011;45700;50.930;5.168;2023-04-06T06:16:36;27.80;;;8.88;;
36575;SDS011;45700;50.930;5.168;2023-04-06T06:20:37;21.77;;;8.10;;
36575;SDS011;45700;50.930;5.168;2023-04-06T06:24:38;24.67;;;9.38;;
36575;SDS011;45700;50.930;5.168;2023-04-06T06:28:39;25.42;;;8.75;;
36575;SDS011;45700;50.930;5.168;2023-04-06T06:32:40;20.23;;;7.78;;
36575;SDS011;45700;50.930;5.168;2023-04-06T06:36:41;21.80;;;8.48;;
36575;SDS011;45700;50.930;5.168;2023-04-06T06:40:42;22.73;;;7.30;;
36575;SDS011;45700;50.930;5.168;2023-04-06T06:44:43;25.85;;;9.20;;
36575;SDS011;45700;50.930;5.168;2023-04-06T06:48:44;22.38;;;8.50;;
36575;SDS011;45700;50.930;5.168;2023-04-06T06:52:46;19.17;;;8.20;;
36575;SDS011;45700;50.930;5.168;2023-04-06T06:56:47;17.25;;;7.22;;
36575;SDS011;45700;50.930;5.168;2023-04-06T07:00:48;25.45;;;7.90;;
36575;SDS011;45700;50.930;5.168;2023-04-06T07:04:49;17.48;;;7.55;;
36575;SDS011;45700;50.930;5.168;2023-04-06T07:08:50;23.45;;;8.13;;
36575;SDS011;45700;50.930;5.168;2023-04-06T07:12:51;18.13;;;7.50;;
36575;SDS011;45700;50.930;5.168;2023-04-06T07:16:52;22.15;;;8.25;;
36575;SDS011;45700;50.930;5.168;2023-04-06T07:20:53;21.70;;;8.63;;
36575;SDS011;45700;50.930;5.168;2023-04-06T07:24:54;19.75;;;7.78;;
36575;SDS011;45700;50.930;5.168;2023-04-06T07:28:55;19.95;;;7.40;;
36575;SDS011;45700;50.930;5.168;2023-04-06T07:32:57;17.17;;;7.18;;
36575;SDS011;45700;50.930;5.168;2023-04-06T07:37:01;19.65;;;7.50;;
36575;SDS011;45700;50.930;5.168;2023-04-06T07:41:03;26.55;;;7.93;;
36575;SDS011;45700;50.930;5.168;2023-04-06T07:45:05;19.58;;;7.15;;
36575;SDS011;45700;50.930;5.168;2023-04-06T07:49:06;16.33;;;6.45;;
36575;SDS011;45700;50.930;5.168;2023-04-06T07:53:08;17.85;;;7.20;;
36575;SDS011;45700;50.930;5.168;2023-04-06T07:57:09;16.40;;;6.15;;
36575;SDS011;45700;50.930;5.168;2023-04-06T08:01:10;17.55;;;6.65;;
36575;SDS011;45700;50.930;5.168;2023-04-06T08:05:11;19.95;;;7.05;;
36575;SDS011;45700;50.930;5.168;2023-04-06T08:09:12;19.92;;;7.03;;
36575;SDS011;45700;50.930;5.168;2023-04-06T08:13:14;18.33;;;6.28;;
36575;SDS011;45700;50.930;5.168;2023-04-06T08:17:15;18.65;;;6.10;;
36575;SDS011;45700;50.930;5.168;2023-04-06T08:21:16;21.15;;;6.88;;
36575;SDS011;45700;50.930;5.168;2023-04-06T08:25:17;16.38;;;6.15;;
36575;SDS011;45700;50.930;5.168;2023-04-06T08:29:18;16.65;;;6.70;;
36575;SDS011;45700;50.930;5.168;2023-04-06T08:33:19;17.38;;;6.25;;
36575;SDS011;45700;50.930;5.168;2023-04-06T08:37:21;22.60;;;6.78;;
36575;SDS011;45700;50.930;5.168;2023-04-06T08:41:22;20.65;;;7.05;;
36575;SDS011;45700;50.930;5.168;2023-04-06T08:45:23;16.75;;;6.78;;
36575;SDS011;45700;50.930;5.168;2023-04-06T08:49:24;12.20;;;5.75;;
36575;SDS011;45700;50.930;5.168;2023-04-06T08:53:26;22.85;;;6.85;;
36575;SDS011;45700;50.930;5.168;2023-04-06T08:57:27;18.05;;;6.72;;
36575;SDS011;45700;50.930;5.168;2023-04-06T09:01:28;20.85;;;6.93;;
36575;SDS011;45700;50.930;5.168;2023-04-06T09:05:30;18.08;;;6.85;;
36575;SDS011;45700;50.930;5.168;2023-04-06T09:09:31;16.40;;;6.75;;
36575;SDS011;45700;50.930;5.168;2023-04-06T09:13:55;17.17;;;6.47;;
36575;SDS011;45700;50.930;5.168;2023-04-06T09:17:54;16.75;;;5.53;;
36575;SDS011;45700;50.930;5.168;2023-04-06T09:22:02;19.05;;;6.35;;
36575;SDS011;45700;50.930;5.168;2023-04-06T09:30:09;15.60;;;5.78;;
36575;SDS011;45700;50.930;5.168;2023-04-06T09:34:20;18.08;;;6.47;;
36575;SDS011;45700;50.930;5.168;2023-04-06T09:38:21;14.48;;;6.55;;
36575;SDS011;45700;50.930;5.168;2023-04-06T09:42:23;19.45;;;6.28;;
36575;SDS011;45700;50.930;5.168;2023-04-06T09:46:25;12.82;;;6.28;;
36575;SDS011;45700;50.930;5.168;2023-04-06T09:50:26;15.07;;;6.05;;
36575;SDS011;45700;50.930;5.168;2023-04-06T09:54:28;17.08;;;5.45;;
36575;SDS011;45700;50.930;5.168;2023-04-06T09:58:32;14.95;;;5.60;;
36575;SDS011;45700;50.930;5.168;2023-04-06T10:06:36;11.70;;;4.70;;
36575;SDS011;45700;50.930;5.168;2023-04-06T10:10:37;12.77;;;5.28;;
36575;SDS011;45700;50.930;5.168;2023-04-06T10:14:38;18.63;;;6.05;;
36575;SDS011;45700;50.930;5.168;2023-04-06T10:18:42;15.75;;;6.22;;
36575;SDS011;45700;50.930;5.168;2023-04-06T10:22:49;13.38;;;5.95;;
36575;SDS011;45700;50.930;5.168;2023-04-06T10:27:03;14.32;;;5.60;;
36575;SDS011;45700;50.930;5.168;2023-04-06T10:31:05;14.52;;;5.97;;
36575;SDS011;45700;50.930;5.168;2023-04-06T10:35:10;18.02;;;6.30;;
36575;SDS011;45700;50.930;5.168;2023-04-06T10:39:11;18.83;;;5.03;;
36575;SDS011;45700;50.930;5.168;2023-04-06T10:43:13;12.35;;;5.43;;
36575;SDS011;45700;50.930;5.168;2023-04-06T10:47:17;14.35;;;6.03;;
36575;SDS011;45700;50.930;5.168;2023-04-06T10:51:19;16.40;;;6.00;;
36575;SDS011;45700;50.930;5.168;2023-04-06T10:55:25;17.92;;;6.05;;
36575;SDS011;45700;50.930;5.168;2023-04-06T10:59:28;17.02;;;6.22;;
36575;SDS011;45700;50.930;5.168;2023-04-06T11:03:29;19.02;;;6.93;;
36575;SDS011;45700;50.930;5.168;2023-04-06T11:07:30;14.45;;;5.88;;
36575;SDS011;45700;50.930;5.168;2023-04-06T11:11:31;17.08;;;5.97;;
36575;SDS011;45700;50.930;5.168;2023-04-06T11:15:35;15.38;;;6.07;;
36575;SDS011;45700;50.930;5.168;2023-04-06T11:19:36;15.38;;;5.72;;
36575;SDS011;45700;50.930;5.168;2023-04-06T11:23:37;14.98;;;6.50;;
36575;SDS011;45700;50.930;5.168;2023-04-06T11:27:38;14.63;;;5.82;;
36575;SDS011;45700;50.930;5.168;2023-04-06T11:31:44;12.57;;;4.93;;
36575;SDS011;45700;50.930;5.168;2023-04-06T11:35:46;14.93;;;5.57;;
36575;SDS011;45700;50.930;5.168;2023-04-06T11:39:51;14.85;;;5.03;;
36575;SDS011;45700;50.930;5.168;2023-04-06T11:43:54;12.88;;;5.25;;
36575;SDS011;45700;50.930;5.168;2023-04-06T11:47:57;12.77;;;5.65;;
36575;SDS011;45700;50.930;5.168;2023-04-06T11:52:00;11.65;;;5.32;;
36575;SDS011;45700;50.930;5.168;2023-04-06T11:56:01;19.15;;;5.82;;
36575;SDS011;45700;50.930;5.168;2023-04-06T12:00:02;13.20;;;5.30;;
36575;SDS011;45700;50.930;5.168;2023-04-06T12:04:04;14.25;;;5.97;;
36575;SDS011;45700;50.930;5.168;2023-04-06T12:08:05;14.35;;;5.13;;
36575;SDS011;45700;50.930;5.168;2023-04-06T12:12:06;9.95;;;4.53;;
36575;SDS011;45700;50.930;5.168;2023-04-06T12:16:07;11.48;;;4.38;;
36575;SDS011;45700;50.930;5.168;2023-04-06T12:20:09;13.27;;;4.97;;
36575;SDS011;45700;50.930;5.168;2023-04-06T12:24:10;14.00;;;5.00;;
36575;SDS011;45700;50.930;5.168;2023-04-06T12:28:11;10.73;;;5.10;;
36575;SDS011;45700;50.930;5.168;2023-04-06T12:32:12;12.73;;;5.50;;
36575;SDS011;45700;50.930;5.168;2023-04-06T12:36:14;13.38;;;5.40;;
36575;SDS011;45700;50.930;5.168;2023-04-06T12:40:24;13.50;;;5.55;;
36575;SDS011;45700;50.930;5.168;2023-04-06T12:44:25;13.00;;;5.50;;
36575;SDS011;45700;50.930;5.168;2023-04-06T12:48:26;16.35;;;5.28;;
36575;SDS011;45700;50.930;5.168;2023-04-06T12:52:27;10.43;;;5.13;;
36575;SDS011;45700;50.930;5.168;2023-04-06T12:56:31;14.70;;;7.18;;
36575;SDS011;45700;50.930;5.168;2023-04-06T13:00:32;15.98;;;6.53;;
36575;SDS011;45700;50.930;5.168;2023-04-06T13:04:33;16.67;;;6.45;;
36575;SDS011;45700;50.930;5.168;2023-04-06T13:08:34;13.15;;;5.93;;
36575;SDS011;45700;50.930;5.168;2023-04-06T13:12:38;13.48;;;5.97;;
36575;SDS011;45700;50.930;5.168;2023-04-06T13:16:39;12.40;;;5.40;;
36575;SDS011;45700;50.930;5.168;2023-04-06T13:20:40;15.85;;;6.07;;
36575;SDS011;45700;50.930;5.168;2023-04-06T13:24:42;16.27;;;6.90;;
36575;SDS011;45700;50.930;5.168;2023-04-06T13:28:43;11.65;;;5.53;;
36575;SDS011;45700;50.930;5.168;2023-04-06T13:32:44;12.93;;;6.00;;
36575;SDS011;45700;50.930;5.168;2023-04-06T13:36:45;10.88;;;5.57;;
36575;SDS011;45700;50.930;5.168;2023-04-06T13:40:46;16.42;;;6.55;;
36575;SDS011;45700;50.930;5.168;2023-04-06T13:44:47;11.80;;;5.22;;
36575;SDS011;45700;50.930;5.168;2023-04-06T13:48:50;13.25;;;5.68;;
36575;SDS011;45700;50.930;5.168;2023-04-06T13:52:51;15.23;;;6.20;;
36575;SDS011;45700;50.930;5.168;2023-04-06T13:56:52;13.65;;;6.45;;
36575;SDS011;45700;50.930;5.168;2023-04-06T14:00:53;13.65;;;5.95;;
36575;SDS011;45700;50.930;5.168;2023-04-06T14:04:54;12.65;;;5.78;;
36575;SDS011;45700;50.930;5.168;2023-04-06T14:08:55;14.60;;;5.93;;
36575;SDS011;45700;50.930;5.168;2023-04-06T14:12:56;14.65;;;6.47;;
36575;SDS011;45700;50.930;5.168;2023-04-06T14:16:58;18.15;;;7.28;;
36575;SDS011;45700;50.930;5.168;2023-04-06T14:20:59;18.20;;;7.50;;
36575;SDS011;45700;50.930;5.168;2023-04-06T14:25:00;18.05;;;6.65;;
36575;SDS011;45700;50.930;5.168;2023-04-06T14:29:02;16.55;;;7.35;;
36575;SDS011;45700;50.930;5.168;2023-04-06T14:33:04;19.48;;;7.43;;
36575;SDS011;45700;50.930;5.168;2023-04-06T14:37:05;19.50;;;7.88;;
36575;SDS011;45700;50.930;5.168;2023-04-06T14:41:07;20.52;;;8.07;;
36575;SDS011;45700;50.930;5.168;2023-04-06T14:45:10;21.77;;;8.45;;
36575;SDS011;45700;50.930;5.168;2023-04-06T14:49:11;16.90;;;7.60;;
36575;SDS011;45700;50.930;5.168;2023-04-06T14:53:12;16.65;;;7.68;;
36575;SDS011;45700;50.930;5.168;2023-04-06T14:57:13;20.50;;;8.23;;
36575;SDS011;45700;50.930;5.168;2023-04-06T15:01:14;21.83;;;9.00;;
36575;SDS011;45700;50.930;5.168;2023-04-06T15:05:15;19.60;;;8.23;;
36575;SDS011;45700;50.930;5.168;2023-04-06T15:09:16;22.92;;;8.68;;
36575;SDS011;45700;50.930;5.168;2023-04-06T15:13:17;24.33;;;10.07;;
36575;SDS011;45700;50.930;5.168;2023-04-06T15:17:19;20.08;;;9.18;;
36575;SDS011;45700;50.930;5.168;2023-04-06T15:21:20;20.10;;;9.50;;
36575;SDS011;45700;50.930;5.168;2023-04-06T15:25:21;27.98;;;10.25;;
36575;SDS011;45700;50.930;5.168;2023-04-06T15:29:22;25.60;;;9.82;;
36575;SDS011;45700;50.930;5.168;2023-04-06T15:33:23;22.25;;;9.27;;
36575;SDS011;45700;50.930;5.168;2023-04-06T15:37:24;21.25;;;9.57;;
36575;SDS011;45700;50.930;5.168;2023-04-06T15:41:25;26.63;;;9.98;;
36575;SDS011;45700;50.930;5.168;2023-04-06T15:45:27;25.88;;;9.68;;
36575;SDS011;45700;50.930;5.168;2023-04-06T15:49:28;24.73;;;9.88;;
36575;SDS011;45700;50.930;5.168;2023-04-06T15:53:30;23.40;;;9.52;;
36575;SDS011;45700;50.930;5.168;2023-04-06T15:57:31;24.38;;;10.30;;
36575;SDS011;45700;50.930;5.168;2023-04-06T16:01:32;20.27;;;8.68;;
36575;SDS011;45700;50.930;5.168;2023-04-06T16:05:34;24.73;;;9.48;;
36575;SDS011;45700;50.930;5.168;2023-04-06T16:09:35;20.50;;;9.40;;
36575;SDS011;45700;50.930;5.168;2023-04-06T16:13:36;24.92;;;9.57;;
36575;SDS011;45700;50.930;5.168;2023-04-06T16:17:37;24.35;;;9.50;;
36575;SDS011;45700;50.930;5.168;2023-04-06T16:21:38;21.77;;;8.95;;
36575;SDS011;45700;50.930;5.168;2023-04-06T16:25:39;19.70;;;9.50;;
36575;SDS011;45700;50.930;5.168;2023-04-06T16:29:41;24.17;;;9.00;;
36575;SDS011;45700;50.930;5.168;2023-04-06T16:33:42;20.63;;;9.68;;
36575;SDS011;45700;50.930;5.168;2023-04-06T16:37:43;20.08;;;8.25;;
36575;SDS011;45700;50.930;5.168;2023-04-06T16:41:45;20.25;;;8.98;;
36575;SDS011;45700;50.930;5.168;2023-04-06T16:45:49;20.27;;;9.70;;
36575;SDS011;45700;50.930;5.168;2023-04-06T16:49:51;18.60;;;9.32;;
36575;SDS011;45700;50.930;5.168;2023-04-06T16:53:52;19.85;;;8.57;;
36575;SDS011;45700;50.930;5.168;2023-04-06T16:57:54;14.63;;;7.15;;
36575;SDS011;45700;50.930;5.168;2023-04-06T17:01:55;18.05;;;8.20;;
36575;SDS011;45700;50.930;5.168;2023-04-06T17:05:56;17.90;;;8.55;;
36575;SDS011;45700;50.930;5.168;2023-04-06T17:09:58;20.58;;;9.13;;
36575;SDS011;45700;50.930;5.168;2023-04-06T17:13:59;19.10;;;8.02;;
36575;SDS011;45700;50.930;5.168;2023-04-06T17:18:01;19.20;;;7.50;;
36575;SDS011;45700;50.930;5.168;2023-04-06T17:22:02;16.88;;;7.65;;
36575;SDS011;45700;50.930;5.168;2023-04-06T17:26:03;16.25;;;7.28;;
36575;SDS011;45700;50.930;5.168;2023-04-06T17:30:05;15.88;;;7.03;;
36575;SDS011;45700;50.930;5.168;2023-04-06T17:34:08;17.13;;;7.45;;
36575;SDS011;45700;50.930;5.168;2023-04-06T17:38:10;15.70;;;7.10;;
36575;SDS011;45700;50.930;5.168;2023-04-06T17:42:11;15.55;;;6.63;;
36575;SDS011;45700;50.930;5.168;2023-04-06T17:46:12;23.80;;;6.65;;
36575;SDS011;45700;50.930;5.168;2023-04-06T17:50:13;14.32;;;6.68;;
36575;SDS011;45700;50.930;5.168;2023-04-06T17:54:14;18.08;;;7.80;;
36575;SDS011;45700;50.930;5.168;2023-04-06T17:58:15;19.13;;;7.93;;
36575;SDS011;45700;50.930;5.168;2023-04-06T18:02:16;18.13;;;7.28;;
36575;SDS011;45700;50.930;5.168;2023-04-06T18:06:18;14.57;;;7.40;;
36575;SDS011;45700;50.930;5.168;2023-04-06T18:10:20;19.38;;;7.47;;
36575;SDS011;45700;50.930;5.168;2023-04-06T18:14:21;16.27;;;7.15;;
36575;SDS011;45700;50.930;5.168;2023-04-06T18:18:22;16.70;;;7.35;;
36575;SDS011;45700;50.930;5.168;2023-04-06T18:22:23;15.80;;;7.13;;
36575;SDS011;45700;50.930;5.168;2023-04-06T18:26:24;17.35;;;6.80;;
36575;SDS011;45700;50.930;5.168;2023-04-06T18:30:26;15.55;;;7.05;;
36575;SDS011;45700;50.930;5.168;2023-04-06T18:34:27;17.05;;;7.47;;
36575;SDS011;45700;50.930;5.168;2023-04-06T18:38:28;13.93;;;6.80;;
36575;SDS011;45700;50.930;5.168;2023-04-06T18:42:29;16.27;;;6.28;;
36575;SDS011;45700;50.930;5.168;2023-04-06T18:46:30;19.10;;;7.15;;
36575;SDS011;45700;50.930;5.168;2023-04-06T18:50:31;16.60;;;6.93;;
36575;SDS011;45700;50.930;5.168;2023-04-06T18:54:32;16.02;;;7.72;;
36575;SDS011;45700;50.930;5.168;2023-04-06T18:58:33;15.77;;;6.88;;
36575;SDS011;45700;50.930;5.168;2023-04-06T19:02:34;12.82;;;5.50;;
36575;SDS011;45700;50.930;5.168;2023-04-06T19:06:35;16.40;;;7.50;;
36575;SDS011;45700;50.930;5.168;2023-04-06T19:10:36;16.30;;;6.68;;
36575;SDS011;45700;50.930;5.168;2023-04-06T19:14:38;12.98;;;7.10;;
36575;SDS011;45700;50.930;5.168;2023-04-06T19:18:39;18.85;;;6.82;;
36575;SDS011;45700;50.930;5.168;2023-04-06T19:22:44;17.02;;;7.47;;
36575;SDS011;45700;50.930;5.168;2023-04-06T19:26:45;20.88;;;8.43;;
36575;SDS011;45700;50.930;5.168;2023-04-06T19:30:46;16.60;;;7.88;;
36575;SDS011;45700;50.930;5.168;2023-04-06T19:34:47;20.60;;;8.10;;
36575;SDS011;45700;50.930;5.168;2023-04-06T19:38:48;17.10;;;7.40;;
36575;SDS011;45700;50.930;5.168;2023-04-06T19:42:49;17.70;;;7.53;;
36575;SDS011;45700;50.930;5.168;2023-04-06T19:46:50;17.13;;;8.13;;
36575;SDS011;45700;50.930;5.168;2023-04-06T19:50:52;20.85;;;8.50;;
36575;SDS011;45700;50.930;5.168;2023-04-06T19:54:56;22.05;;;9.45;;
36575;SDS011;45700;50.930;5.168;2023-04-06T19:58:57;18.70;;;8.60;;
36575;SDS011;45700;50.930;5.168;2023-04-06T20:02:58;25.90;;;9.35;;
36575;SDS011;45700;50.930;5.168;2023-04-06T20:06:59;22.48;;;10.10;;
36575;SDS011;45700;50.930;5.168;2023-04-06T20:11:01;26.25;;;9.50;;
36575;SDS011;45700;50.930;5.168;2023-04-06T20:15:03;25.13;;;9.70;;
36575;SDS011;45700;50.930;5.168;2023-04-06T20:19:04;31.67;;;10.27;;
36575;SDS011;45700;50.930;5.168;2023-04-06T20:23:05;26.63;;;10.60;;
36575;SDS011;45700;50.930;5.168;2023-04-06T20:27:06;31.55;;;11.05;;
36575;SDS011;45700;50.930;5.168;2023-04-06T20:31:07;29.88;;;12.30;;
36575;SDS011;45700;50.930;5.168;2023-04-06T20:35:08;25.92;;;10.93;;
36575;SDS011;45700;50.930;5.168;2023-04-06T20:39:10;32.60;;;11.25;;
36575;SDS011;45700;50.930;5.168;2023-04-06T20:43:10;29.75;;;11.52;;
36575;SDS011;45700;50.930;5.168;2023-04-06T20:47:11;32.67;;;10.95;;
36575;SDS011;45700;50.930;5.168;2023-04-06T20:51:16;28.70;;;10.43;;
36575;SDS011;45700;50.930;5.168;2023-04-06T20:55:18;38.08;;;11.27;;
36575;SDS011;45700;50.930;5.168;2023-04-06T20:59:19;39.10;;;11.45;;
36575;SDS011;45700;50.930;5.168;2023-04-06T21:03:20;32.83;;;10.00;;
36575;SDS011;45700;50.930;5.168;2023-04-06T21:07:21;28.10;;;10.13;;
36575;SDS011;45700;50.930;5.168;2023-04-06T21:11:22;26.83;;;10.00;;
36575;SDS011;45700;50.930;5.168;2023-04-06T21:15:23;31.58;;;11.65;;
36575;SDS011;45700;50.930;5.168;2023-04-06T21:19:25;27.60;;;10.60;;
36575;SDS011;45700;50.930;5.168;2023-04-06T21:23:28;31.73;;;10.40;;
36575;SDS011;45700;50.930;5.168;2023-04-06T21:27:29;26.70;;;11.48;;
36575;SDS011;45700;50.930;5.168;2023-04-06T21:31:30;33.20;;;11.23;;
36575;SDS011;45700;50.930;5.168;2023-04-06T21:35:36;25.08;;;10.70;;
36575;SDS011;45700;50.930;5.168;2023-04-06T21:39:37;26.02;;;10.55;;
36575;SDS011;45700;50.930;5.168;2023-04-06T21:43:38;39.40;;;12.15;;
36575;SDS011;45700;50.930;5.168;2023-04-06T21:47:39;31.88;;;11.35;;
36575;SDS011;45700;50.930;5.168;2023-04-06T21:51:40;33.33;;;10.85;;
36575;SDS011;45700;50.930;5.168;2023-04-06T21:55:44;35.20;;;11.20;;
36575;SDS011;45700;50.930;5.168;2023-04-06T21:59:45;34.88;;;10.70;;
36575;SDS011;45700;50.930;5.168;2023-04-06T22:03:47;28.75;;;10.52;;
36575;SDS011;45700;50.930;5.168;2023-04-06T22:07:48;30.50;;;10.38;;
36575;SDS011;45700;50.930;5.168;2023-04-06T22:11:49;29.05;;;10.77;;
36575;SDS011;45700;50.930;5.168;2023-04-06T22:15:50;26.48;;;10.40;;
36575;SDS011;45700;50.930;5.168;2023-04-06T22:19:51;30.77;;;10.02;;
36575;SDS011;45700;50.930;5.168;2023-04-06T22:23:52;24.35;;;8.60;;
36575;SDS011;45700;50.930;5.168;2023-04-06T22:27:53;24.15;;;9.10;;
36575;SDS011;45700;50.930;5.168;2023-04-06T22:31:54;27.40;;;9.55;;
36575;SDS011;45700;50.930;5.168;2023-04-06T22:35:55;31.45;;;10.00;;
36575;SDS011;45700;50.930;5.168;2023-04-06T22:39:56;33.00;;;9.60;;
36575;SDS011;45700;50.930;5.168;2023-04-06T22:43:57;28.48;;;10.57;;
36575;SDS011;45700;50.930;5.168;2023-04-06T22:47:58;36.63;;;12.43;;
36575;SDS011;45700;50.930;5.168;2023-04-06T22:51:59;37.35;;;12.75;;
36575;SDS011;45700;50.930;5.168;2023-04-06T22:56:00;33.53;;;11.63;;
36575;SDS011;45700;50.930;5.168;2023-04-06T23:00:01;42.10;;;12.38;;
36575;SDS011;45700;50.930;5.168;2023-04-06T23:04:04;38.50;;;11.27;;
36575;SDS011;45700;50.930;5.168;2023-04-06T23:08:05;36.97;;;11.00;;
36575;SDS011;45700;50.930;5.168;2023-04-06T23:12:06;33.83;;;10.38;;
36575;SDS011;45700;50.930;5.168;2023-04-06T23:16:08;26.52;;;9.63;;
36575;SDS011;45700;50.930;5.168;2023-04-06T23:20:09;29.33;;;9.38;;
36575;SDS011;45700;50.930;5.168;2023-04-06T23:24:10;22.38;;;7.70;;
36575;SDS011;45700;50.930;5.168;2023-04-06T23:28:11;17.27;;;7.00;;
36575;SDS011;45700;50.930;5.168;2023-04-06T23:32:12;22.90;;;8.40;;
36575;SDS011;45700;50.930;5.168;2023-04-06T23:36:13;19.92;;;7.63;;
36575;SDS011;45700;50.930;5.168;2023-04-06T23:40:14;24.13;;;8.43;;
36575;SDS011;45700;50.930;5.168;2023-04-06T23:44:15;30.48;;;8.55;;
36575;SDS011;45700;50.930;5.168;2023-04-06T23:48:16;16.75;;;7.20;;
36575;SDS011;45700;50.930;5.168;2023-04-06T23:52:17;22.85;;;7.68;;
36575;SDS011;45700;50.930;5.168;2023-04-06T23:56:18;17.48;;;7.03;;
